createdAt,value
2018-07-09T00:00:58.370Z,3.73
2018-07-09T00:03:27.239Z,4.27
2018-07-09T00:05:56.179Z,3.93
2018-07-09T00:08:25.003Z,5.57
2018-07-09T00:11:00.747Z,3.90
2018-07-09T00:13:30.723Z,4.50
2018-07-09T00:15:59.846Z,5.83
2018-07-09T00:18:28.797Z,4.30
2018-07-09T00:20:57.701Z,5.27
2018-07-09T00:23:26.613Z,4.40
2018-07-09T00:25:56.246Z,3.40
2018-07-09T00:28:25.060Z,4.77
2018-07-09T00:30:53.883Z,5.13
2018-07-09T00:33:23.137Z,5.73
2018-07-09T00:35:51.998Z,5.10
2018-07-09T00:38:21.442Z,4.20
2018-07-09T00:40:50.216Z,4.50
2018-07-09T00:43:18.976Z,5.87
2018-07-09T00:45:47.858Z,4.20
2018-07-09T00:48:16.824Z,3.90
2018-07-09T00:50:45.636Z,5.30
2018-07-09T00:53:14.569Z,4.37
2018-07-09T00:55:43.462Z,4.87
2018-07-09T00:58:12.362Z,6.40
2018-07-09T01:00:41.388Z,5.73
2018-07-09T01:03:10.272Z,7.23
2018-07-09T01:05:39.104Z,6.10
2018-07-09T01:08:08.026Z,6.17
2018-07-09T01:10:46.774Z,5.33
2018-07-09T01:13:15.738Z,4.93
2018-07-09T01:15:44.564Z,5.07
2018-07-09T01:18:13.352Z,5.00
2018-07-09T01:20:42.225Z,4.67
2018-07-09T01:23:10.977Z,5.07
2018-07-09T01:25:39.822Z,5.03
2018-07-09T01:28:08.641Z,5.60
2018-07-09T01:30:37.489Z,5.43
2018-07-09T01:33:06.295Z,5.30
2018-07-09T01:35:35.104Z,4.83
2018-07-09T01:38:04.090Z,5.60
2018-07-09T01:40:32.888Z,5.93
2018-07-09T01:43:01.643Z,6.27
2018-07-09T01:45:30.450Z,5.37
2018-07-09T01:47:59.349Z,5.97
2018-07-09T01:50:28.239Z,5.37
2018-07-09T01:52:57.056Z,4.70
2018-07-09T01:55:25.947Z,5.27
2018-07-09T01:57:54.793Z,6.00
2018-07-09T02:00:23.616Z,7.77
2018-07-09T02:02:52.536Z,5.03
2018-07-09T02:05:21.409Z,5.43
2018-07-09T02:07:50.216Z,5.97
2018-07-09T02:10:18.961Z,5.87
2018-07-09T02:12:47.823Z,4.93
2018-07-09T02:15:16.698Z,4.90
2018-07-09T02:17:45.525Z,5.87
2018-07-09T02:20:14.469Z,5.07
2018-07-09T02:22:43.363Z,6.07
2018-07-09T02:25:12.141Z,6.23
2018-07-09T02:27:41.014Z,6.83
2018-07-09T02:30:09.965Z,8.53
2018-07-09T02:32:38.883Z,8.23
2018-07-09T02:35:07.723Z,6.80
2018-07-09T02:37:36.629Z,6.23
2018-07-09T02:40:05.637Z,9.00
2018-07-09T02:42:34.424Z,6.17
2018-07-09T02:45:03.496Z,6.50
2018-07-09T02:47:32.457Z,7.67
2018-07-09T02:50:01.676Z,6.60
2018-07-09T02:52:30.527Z,6.53
2018-07-09T02:54:59.353Z,6.30
2018-07-09T02:57:28.229Z,7.20
2018-07-09T02:59:57.124Z,7.60
2018-07-09T03:02:25.978Z,6.73
2018-07-09T03:04:54.849Z,7.03
2018-07-09T03:07:23.752Z,6.37
2018-07-09T03:09:52.596Z,6.57
2018-07-09T03:12:21.590Z,7.20
2018-07-09T03:14:50.564Z,6.00
2018-07-09T03:17:19.399Z,6.77
2018-07-09T03:19:48.270Z,7.33
2018-07-09T03:22:16.999Z,7.13
2018-07-09T03:24:45.900Z,6.97
2018-07-09T03:27:14.634Z,6.53
2018-07-09T03:29:43.449Z,6.00
2018-07-09T03:32:12.302Z,6.50
2018-07-09T03:34:41.169Z,6.77
2018-07-09T03:37:09.896Z,7.50
2018-07-09T03:39:38.747Z,7.57
2018-07-09T03:42:07.101Z,6.53
2018-07-09T03:44:36.139Z,6.30
2018-07-09T03:47:05.376Z,7.27
2018-07-09T03:49:34.428Z,7.50
2018-07-09T03:52:03.340Z,8.03
2018-07-09T03:54:32.267Z,9.23
2018-07-09T03:57:01.078Z,8.00
2018-07-09T03:59:29.944Z,8.07
2018-07-09T04:01:58.905Z,8.17
2018-07-09T04:04:27.958Z,8.07
2018-07-09T04:06:57.165Z,8.47
2018-07-09T04:09:26.419Z,7.43
2018-07-09T04:12:01.494Z,8.03
2018-07-09T04:14:30.481Z,7.47
2018-07-09T04:16:59.255Z,6.10
2018-07-09T04:19:28.064Z,5.93
2018-07-09T04:21:56.875Z,6.53
2018-07-09T04:24:25.639Z,9.27
2018-07-09T04:26:54.971Z,11.70
2018-07-09T04:29:23.780Z,7.80
2018-07-09T04:31:52.709Z,8.57
2018-07-09T04:34:21.198Z,9.67
2018-07-09T04:36:50.004Z,8.80
2018-07-09T04:39:18.756Z,9.20
2018-07-09T04:41:47.580Z,7.80
2018-07-09T04:44:16.447Z,7.67
2018-07-09T04:46:45.368Z,6.90
2018-07-09T04:49:14.200Z,9.17
2018-07-09T04:51:43.044Z,6.67
2018-07-09T04:54:12.065Z,7.13
2018-07-09T04:56:40.930Z,7.90
2018-07-09T04:59:09.680Z,7.27
2018-07-09T05:01:38.431Z,8.40
2018-07-09T05:04:07.341Z,8.17
2018-07-09T05:06:36.048Z,7.10
2018-07-09T05:09:05.786Z,6.33
2018-07-09T05:11:34.656Z,6.90
2018-07-09T05:14:03.720Z,6.45
2018-07-09T05:16:32.488Z,6.80
2018-07-09T05:19:01.352Z,7.85
2018-07-09T05:21:30.184Z,6.53
2018-07-09T05:23:59.140Z,7.08
2018-07-09T05:26:27.913Z,7.90
2018-07-09T05:28:57.712Z,6.90
2018-07-09T05:31:26.484Z,7.08
2018-07-09T05:33:55.470Z,6.90
2018-07-09T05:36:24.412Z,6.53
2018-07-09T05:38:53.702Z,7.00
2018-07-09T05:41:22.642Z,6.65
2018-07-09T05:43:51.706Z,7.45
2018-07-09T05:46:20.524Z,8.55
2018-07-09T05:48:49.564Z,6.67
2018-07-09T05:51:18.376Z,7.60
2018-07-09T05:53:47.286Z,6.22
2018-07-09T05:56:16.382Z,8.95
2018-07-09T05:58:45.390Z,6.67
2018-07-09T06:01:14.220Z,6.90
2018-07-09T06:03:42.992Z,7.05
2018-07-09T06:06:11.798Z,8.53
2018-07-09T06:08:40.590Z,9.33
2018-07-09T06:11:10.703Z,10.03
2018-07-09T06:13:39.665Z,10.45
2018-07-09T06:16:08.640Z,7.05
2018-07-09T06:18:37.467Z,8.73
2018-07-09T06:21:06.506Z,8.43
2018-07-09T06:23:35.440Z,10.03
2018-07-09T06:26:04.170Z,7.50
2018-07-09T06:28:32.553Z,6.58
2018-07-09T06:31:01.324Z,6.67
2018-07-09T06:33:30.249Z,8.23
2018-07-09T06:35:59.342Z,10.43
2018-07-09T06:38:28.172Z,9.38
2018-07-09T06:40:57.007Z,14.90
2018-07-09T06:43:25.905Z,10.00
2018-07-09T06:45:54.709Z,10.45
2018-07-09T06:48:23.668Z,7.47
2018-07-09T06:50:52.693Z,8.13
2018-07-09T06:53:21.506Z,8.58
2018-07-09T06:55:50.398Z,7.62
2018-07-09T06:58:19.176Z,7.90
2018-07-09T07:00:47.975Z,10.20
2018-07-09T07:03:16.892Z,9.30
2018-07-09T07:05:45.736Z,9.73
2018-07-09T07:08:14.666Z,8.53
2018-07-09T07:10:43.567Z,9.93
2018-07-09T07:13:12.516Z,9.30
2018-07-09T07:15:41.350Z,8.03
2018-07-09T07:18:10.250Z,8.10
2018-07-09T07:20:39.127Z,10.87
2018-07-09T07:23:07.956Z,9.07
2018-07-09T07:25:36.718Z,7.03
2018-07-09T07:28:05.617Z,10.13
2018-07-09T07:30:34.440Z,10.33
2018-07-09T07:33:03.345Z,10.50
2018-07-09T07:35:32.614Z,11.30
2018-07-09T07:38:01.497Z,10.57
2018-07-09T07:40:30.326Z,7.90
2018-07-09T07:42:59.205Z,8.60
2018-07-09T07:45:28.056Z,7.90
2018-07-09T07:47:56.747Z,9.47
2018-07-09T07:50:25.932Z,13.67
2018-07-09T07:52:54.744Z,10.47
2018-07-09T07:55:23.780Z,8.10
2018-07-09T07:57:52.782Z,9.80
2018-07-09T08:00:21.708Z,10.13
2018-07-09T08:02:50.573Z,7.53
2018-07-09T08:05:19.584Z,9.50
2018-07-09T08:07:48.384Z,8.83
2018-07-09T08:10:17.312Z,10.93
2018-07-09T08:13:27.173Z,11.00
2018-07-09T08:15:15.108Z,8.77
2018-07-09T08:17:44.032Z,10.10
2018-07-09T08:20:12.880Z,7.97
2018-07-09T08:22:41.781Z,8.47
2018-07-09T08:25:10.770Z,7.83
2018-07-09T08:27:39.468Z,9.80
2018-07-09T08:30:08.312Z,8.97
2018-07-09T08:32:37.112Z,9.47
2018-07-09T08:35:05.958Z,7.77
2018-07-09T08:37:34.772Z,9.57
2018-07-09T08:40:03.695Z,13.85
2018-07-09T08:42:32.733Z,9.15
2018-07-09T08:45:01.550Z,8.08
2018-07-09T08:47:30.279Z,8.40
2018-07-09T08:49:59.180Z,6.85
2018-07-09T08:52:27.978Z,9.40
2018-07-09T08:54:56.914Z,10.20
2018-07-09T08:57:25.764Z,7.25
2018-07-09T08:59:54.462Z,8.50
2018-07-09T09:02:23.248Z,7.40
2018-07-09T09:04:52.104Z,8.05
2018-07-09T09:07:20.930Z,8.55
2018-07-09T09:09:49.868Z,8.25
2018-07-09T09:12:18.834Z,7.05
2018-07-09T09:14:47.922Z,7.65
2018-07-09T09:17:16.775Z,10.82
2018-07-09T09:19:45.536Z,6.60
2018-07-09T09:22:14.365Z,5.12
2018-07-09T09:24:43.168Z,6.92
2018-07-09T09:27:12.001Z,7.28
2018-07-09T09:29:40.844Z,6.13
2018-07-09T09:32:09.651Z,7.80
2018-07-09T09:34:38.384Z,9.13
2018-07-09T09:37:07.622Z,11.70
2018-07-09T09:39:37.190Z,6.55
2018-07-09T09:42:06.528Z,9.33
2018-07-09T09:44:35.718Z,8.50
2018-07-09T09:47:04.759Z,7.37
2018-07-09T09:49:33.634Z,6.47
2018-07-09T09:52:02.613Z,8.40
2018-07-09T09:54:31.506Z,6.22
2018-07-09T09:57:00.560Z,7.40
2018-07-09T09:59:29.486Z,5.78
2018-07-09T10:01:58.270Z,7.20
2018-07-09T10:04:27.133Z,7.75
2018-07-09T10:06:55.988Z,7.67
2018-07-09T10:09:24.833Z,6.80
2018-07-09T10:11:54.080Z,8.58
2018-07-09T10:14:22.860Z,8.35
2018-07-09T10:16:51.784Z,6.28
2018-07-09T10:19:20.563Z,4.35
2018-07-09T10:21:49.398Z,6.90
2018-07-09T10:24:18.316Z,6.03
2018-07-09T10:26:47.204Z,5.22
2018-07-09T10:29:16.026Z,6.67
2018-07-09T10:31:44.872Z,5.92
2018-07-09T10:34:13.660Z,9.03
2018-07-09T10:36:42.511Z,5.17
2018-07-09T10:39:11.451Z,7.78
2018-07-09T10:41:40.246Z,7.62
2018-07-09T10:44:09.024Z,5.72
2018-07-09T10:46:37.856Z,8.18
2018-07-09T10:49:06.758Z,6.17
2018-07-09T10:51:35.673Z,5.58
2018-07-09T10:54:04.030Z,6.33
2018-07-09T10:56:32.863Z,7.60
2018-07-09T10:59:01.815Z,5.40
2018-07-09T11:01:31.148Z,6.53
2018-07-09T11:03:59.685Z,6.28
2018-07-09T11:06:28.515Z,5.50
2018-07-09T11:08:57.637Z,6.47
2018-07-09T11:11:26.475Z,4.00
2018-07-09T11:13:55.358Z,5.37
2018-07-09T11:16:24.206Z,5.40
2018-07-09T11:18:52.834Z,4.70
2018-07-09T11:21:21.707Z,5.53
2018-07-09T11:23:50.491Z,5.42
2018-07-09T11:26:19.480Z,8.25
2018-07-09T11:28:48.510Z,6.70
2018-07-09T11:31:17.352Z,8.10
2018-07-09T11:33:46.155Z,5.90
2018-07-09T11:36:15.019Z,4.87
2018-07-09T11:38:43.785Z,8.13
2018-07-09T11:41:12.678Z,6.62
2018-07-09T11:43:41.156Z,8.70
2018-07-09T11:46:10.085Z,7.15
2018-07-09T11:48:38.953Z,6.05
2018-07-09T11:51:07.816Z,4.95
2018-07-09T11:53:36.773Z,8.85
2018-07-09T11:56:05.713Z,7.08
2018-07-09T11:58:34.600Z,7.42
2018-07-09T12:01:03.386Z,5.75
2018-07-09T12:03:32.226Z,6.40
2018-07-09T12:06:01.535Z,7.55
2018-07-09T12:08:30.910Z,10.68
2018-07-09T12:10:59.781Z,8.95
2018-07-09T12:13:28.567Z,8.65
2018-07-09T12:15:57.571Z,7.40
2018-07-09T12:18:26.589Z,5.92
2018-07-09T12:20:55.379Z,5.47
2018-07-09T12:23:24.211Z,6.17
2018-07-09T12:25:53.080Z,4.53
2018-07-09T12:28:21.947Z,6.03
2018-07-09T12:30:50.819Z,6.40
2018-07-09T12:33:19.210Z,5.78
2018-07-09T12:35:48.221Z,4.95
2018-07-09T12:38:17.141Z,7.05
2018-07-09T12:40:46.047Z,4.35
2018-07-09T12:43:14.677Z,8.40
2018-07-09T12:45:43.689Z,4.25
2018-07-09T12:48:12.535Z,4.72
2018-07-09T12:50:41.527Z,5.78
2018-07-09T12:53:10.413Z,6.85
2018-07-09T12:55:39.494Z,5.67
2018-07-09T12:58:08.316Z,6.67
2018-07-09T13:00:37.238Z,5.30
2018-07-09T13:03:06.072Z,3.67
2018-07-09T13:05:35.481Z,6.45
2018-07-09T13:08:04.305Z,6.40
2018-07-09T13:10:33.213Z,6.47
2018-07-09T13:13:02.071Z,5.40
2018-07-09T13:15:30.855Z,3.60
2018-07-09T13:17:59.471Z,5.60
2018-07-09T13:20:28.218Z,8.98
2018-07-09T13:22:57.241Z,6.65
2018-07-09T13:25:26.438Z,4.75
2018-07-09T13:27:55.611Z,5.33
2018-07-09T13:30:24.877Z,3.90
2018-07-09T13:32:53.685Z,5.33
2018-07-09T13:35:22.707Z,4.47
2018-07-09T13:37:51.569Z,4.40
2018-07-09T13:40:20.387Z,6.67
2018-07-09T13:42:49.285Z,4.28
2018-07-09T13:45:18.158Z,6.53
2018-07-09T13:47:46.823Z,5.62
2018-07-09T13:50:15.606Z,4.50
2018-07-09T13:52:44.413Z,7.35
2018-07-09T13:55:13.374Z,6.28
2018-07-09T13:57:42.223Z,4.55
2018-07-09T14:00:11.447Z,4.18
2018-07-09T14:02:40.303Z,3.77
2018-07-09T14:05:08.692Z,4.50
2018-07-09T14:07:37.591Z,6.12
2018-07-09T14:10:06.504Z,5.25
2018-07-09T14:12:35.326Z,3.67
2018-07-09T14:15:04.247Z,3.17
2018-07-09T14:17:32.979Z,2.80
2018-07-09T14:20:25.937Z,5.30
2018-07-09T14:22:54.796Z,3.65
2018-07-09T14:25:23.613Z,4.28
2018-07-09T14:27:52.555Z,4.03
2018-07-09T14:30:21.599Z,4.40
2018-07-09T14:32:50.437Z,4.28
2018-07-09T14:35:19.117Z,5.20
2018-07-09T14:37:47.501Z,3.37
2018-07-09T14:40:16.303Z,3.90
2018-07-09T14:42:45.049Z,4.12
2018-07-09T14:45:13.912Z,4.67
2018-07-09T14:47:42.796Z,4.80
2018-07-09T14:50:11.649Z,4.95
2018-07-09T14:52:40.450Z,4.47
2018-07-09T14:55:09.254Z,2.85
2018-07-09T14:57:38.235Z,5.22
2018-07-09T15:00:07.897Z,2.75
2018-07-09T15:02:37.082Z,6.25
2018-07-09T15:05:21.221Z,2.60
2018-07-09T15:07:50.349Z,2.58
2018-07-09T15:10:39.447Z,3.08
2018-07-09T15:13:12.061Z,3.87
2018-07-09T15:15:40.842Z,3.37
2018-07-09T15:18:09.929Z,2.72
2018-07-09T15:20:38.815Z,2.47
2018-07-09T15:23:07.981Z,3.80
2018-07-09T15:25:36.805Z,3.37
2018-07-09T15:28:05.948Z,2.77
2018-07-09T15:30:34.719Z,3.20
2018-07-09T15:33:03.511Z,3.90
2018-07-09T15:35:32.305Z,2.30
2018-07-09T15:38:01.641Z,3.00
2018-07-09T15:40:30.475Z,3.30
2018-07-09T15:42:59.378Z,3.08
2018-07-09T15:45:28.145Z,2.62
2018-07-09T15:47:57.444Z,3.55
2018-07-09T15:50:26.363Z,3.92
2018-07-09T15:52:55.273Z,2.92
2018-07-09T15:55:24.153Z,4.45
2018-07-09T15:57:53.045Z,2.40
2018-07-09T16:00:21.965Z,5.22
2018-07-09T16:02:50.802Z,2.22
2018-07-09T16:05:19.875Z,2.45
2018-07-09T16:07:48.773Z,4.12
2018-07-09T16:10:17.603Z,1.60
2018-07-09T16:12:46.021Z,2.87
2018-07-09T16:15:14.886Z,1.82
2018-07-09T16:17:43.881Z,5.87
2018-07-09T16:20:12.743Z,3.22
2018-07-09T16:22:42.183Z,4.20
2018-07-09T16:25:12.038Z,3.55
2018-07-09T16:27:40.943Z,4.87
2018-07-09T16:30:13.381Z,2.25
2018-07-09T16:32:42.263Z,2.87
2018-07-09T16:35:11.057Z,2.65
2018-07-09T16:37:40.136Z,2.20
2018-07-09T16:40:08.986Z,2.72
2018-07-09T16:42:37.888Z,3.00
2018-07-09T16:45:06.727Z,3.17
2018-07-09T16:47:35.726Z,2.98
2018-07-09T16:50:04.806Z,1.70
2018-07-09T16:52:33.613Z,2.20
2018-07-09T16:55:02.578Z,1.57
2018-07-09T16:57:31.466Z,2.00
2018-07-09T17:00:00.328Z,3.42
2018-07-09T17:02:29.016Z,1.67
2018-07-09T17:04:57.806Z,1.85
2018-07-09T17:07:27.150Z,2.42
2018-07-09T17:09:55.991Z,1.50
2018-07-09T17:12:24.931Z,1.60
2018-07-09T17:14:53.723Z,2.27
2018-07-09T17:17:22.935Z,1.62
2018-07-09T17:19:51.785Z,2.08
2018-07-09T17:22:20.810Z,3.05
2018-07-09T17:24:49.559Z,1.80
2018-07-09T17:27:24.367Z,2.10
2018-07-09T17:29:53.224Z,2.65
2018-07-09T17:32:22.341Z,1.60
2018-07-09T17:34:51.102Z,1.30
2018-07-09T17:37:20.012Z,1.85
2018-07-09T17:39:48.937Z,1.95
2018-07-09T17:42:25.436Z,1.57
2018-07-09T17:44:54.272Z,1.52
2018-07-09T17:47:25.296Z,1.98
2018-07-09T17:49:54.088Z,4.73
2018-07-09T17:52:42.735Z,2.37
2018-07-09T17:55:11.550Z,2.10
2018-07-09T17:57:40.368Z,2.53
2018-07-09T18:00:09.646Z,1.67
2018-07-09T18:02:41.957Z,2.07
2018-07-09T18:05:10.409Z,1.83
2018-07-09T18:07:39.365Z,2.90
2018-07-09T18:10:08.196Z,2.00
2018-07-09T18:12:37.150Z,2.72
2018-07-09T18:15:06.442Z,1.97
2018-07-09T18:17:35.232Z,2.27
2018-07-09T18:20:07.791Z,2.27
2018-07-09T18:22:36.669Z,2.47
2018-07-09T18:25:06.171Z,2.40
2018-07-09T18:27:35.197Z,2.60
2018-07-09T18:30:04.236Z,2.87
2018-07-09T18:32:33.249Z,3.25
2018-07-09T18:35:02.388Z,2.77
2018-07-09T18:37:32.703Z,2.53
2018-07-09T18:40:01.786Z,1.20
2018-07-09T18:42:34.124Z,1.63
2018-07-09T18:45:02.956Z,2.93
2018-07-09T18:47:31.716Z,1.97
2018-07-09T18:50:00.526Z,2.17
2018-07-09T18:52:30.062Z,3.00
2018-07-09T18:54:58.967Z,1.60
2018-07-09T18:57:27.879Z,2.43
2018-07-09T18:59:56.758Z,1.43
2018-07-09T19:02:25.450Z,1.63
2018-07-09T19:04:54.210Z,1.93
2018-07-09T19:07:23.088Z,1.40
2018-07-09T19:09:53.476Z,1.40
2018-07-09T19:12:22.671Z,1.70
2018-07-09T19:14:52.781Z,1.50
2018-07-09T19:18:02.365Z,1.40
2018-07-09T19:20:42.440Z,3.43
2018-07-09T19:23:10.793Z,2.53
2018-07-09T19:25:38.817Z,4.77
2018-07-09T19:28:07.610Z,2.57
2018-07-09T19:30:35.062Z,2.00
2018-07-09T19:33:02.619Z,2.13
2018-07-09T19:35:30.161Z,1.63
2018-07-09T19:37:57.912Z,1.67
2018-07-09T19:40:25.236Z,2.10
2018-07-09T19:42:52.949Z,3.03
2018-07-09T19:45:35.567Z,1.77
2018-07-09T19:48:03.406Z,2.47
2018-07-09T19:50:31.052Z,4.13
2018-07-09T19:52:58.634Z,1.97
2018-07-09T19:55:26.121Z,3.87
2018-07-09T19:57:53.673Z,1.50
2018-07-09T20:00:21.378Z,2.60
2018-07-09T20:02:48.936Z,1.67
2018-07-09T20:05:16.633Z,2.77
2018-07-09T20:07:44.224Z,2.97
2018-07-09T20:11:14.446Z,2.67
2018-07-09T20:13:51.045Z,2.70
2018-07-09T20:16:23.942Z,1.80
2018-07-09T20:18:53.537Z,2.10
2018-07-09T20:21:21.842Z,1.53
2018-07-09T20:23:49.555Z,1.60
2018-07-09T20:26:17.302Z,2.70
2018-07-09T20:28:45.141Z,3.50
2018-07-09T20:31:12.702Z,2.30
2018-07-09T20:33:40.179Z,2.20
2018-07-09T20:36:07.806Z,2.50
2018-07-09T20:38:35.371Z,2.53
2018-07-09T20:41:03.559Z,3.55
2018-07-09T20:43:31.070Z,3.20
2018-07-09T20:45:58.593Z,2.53
2018-07-09T20:48:26.127Z,2.77
2018-07-09T20:50:53.608Z,4.53
2018-07-09T20:53:21.115Z,2.00
2018-07-09T20:55:48.607Z,3.53
2018-07-09T20:58:16.159Z,1.77
2018-07-09T21:00:43.822Z,4.17
2018-07-09T21:03:11.358Z,1.70
2018-07-09T21:05:39.000Z,2.27
2018-07-09T21:08:06.720Z,2.40
2018-07-09T21:10:34.270Z,2.10
2018-07-09T21:13:01.811Z,1.90
2018-07-09T21:15:29.416Z,1.87
2018-07-09T21:17:57.075Z,1.57
2018-07-09T21:20:24.560Z,3.57
2018-07-09T21:22:52.100Z,1.92
2018-07-09T21:25:19.602Z,2.57
2018-07-09T21:27:47.115Z,4.13
2018-07-09T21:30:14.627Z,4.53
2018-07-09T21:32:42.152Z,5.10
2018-07-09T21:35:09.701Z,2.80
2018-07-09T21:37:37.320Z,2.03
2018-07-09T21:40:04.828Z,2.10
2018-07-09T21:42:32.351Z,3.67
2018-07-09T21:44:59.788Z,3.70
2018-07-09T21:47:27.348Z,3.63
2018-07-09T21:49:54.944Z,1.90
2018-07-09T21:52:22.430Z,1.73
2018-07-09T21:54:50.029Z,3.43
2018-07-09T21:57:17.560Z,1.90
2018-07-09T21:59:45.056Z,3.87
2018-07-09T22:02:12.560Z,1.97
2018-07-09T22:04:40.081Z,2.90
2018-07-09T22:07:07.568Z,2.00
2018-07-09T22:09:35.112Z,2.70
2018-07-09T22:12:02.618Z,4.30
2018-07-09T22:14:30.150Z,2.13
2018-07-09T22:16:57.619Z,4.07
2018-07-09T22:19:25.155Z,2.23
2018-07-09T22:21:52.638Z,2.97
2018-07-09T22:24:20.136Z,2.97
2018-07-09T22:26:47.643Z,2.27
2018-07-09T22:29:15.219Z,3.00
2018-07-09T22:31:44.073Z,4.33
2018-07-09T22:34:12.872Z,2.13
2018-07-09T22:36:41.676Z,2.73
2018-07-09T22:39:10.503Z,4.00
2018-07-09T22:41:39.368Z,2.40
2018-07-09T22:44:17.644Z,3.80
2018-07-09T22:46:46.978Z,1.93
2018-07-09T22:49:15.726Z,2.67
2018-07-09T22:51:44.904Z,2.80
2018-07-09T22:54:13.666Z,2.27
2018-07-09T22:56:42.630Z,1.83
2018-07-09T22:59:11.512Z,1.77
2018-07-09T23:01:40.398Z,2.37
2018-07-09T23:04:09.305Z,1.90
2018-07-09T23:06:38.496Z,2.07
2018-07-09T23:10:22.848Z,2.40
2018-07-09T23:13:30.753Z,2.87
2018-07-09T23:16:36.653Z,2.03
2018-07-09T23:19:22.885Z,2.87
2018-07-09T23:22:02.721Z,2.10
2018-07-09T23:24:30.185Z,3.40
2018-07-09T23:26:58.005Z,1.97
2018-07-09T23:29:25.509Z,1.70
2018-07-09T23:31:53.001Z,4.23
2018-07-09T23:34:20.723Z,2.70
2018-07-09T23:36:48.235Z,2.73
2018-07-09T23:39:15.956Z,4.20
2018-07-09T23:41:43.449Z,5.67
2018-07-09T23:44:10.937Z,2.80
2018-07-09T23:46:38.408Z,4.03
2018-07-09T23:49:05.875Z,2.10
2018-07-09T23:51:33.360Z,2.03
2018-07-09T23:54:00.944Z,3.03
2018-07-09T23:56:32.256Z,2.07
2018-07-09T23:59:40.522Z,2.47
